Trofeo AVIS Citta' di Todi - km 6,600
Todi (Pg) -  05/06/2015

foto (by G. Rustici)

 

 

Ordine d'arrivo generale maschile - km 6,600
Pos. Cognome Nome SocietÓ Anno Categoria Tempi Media
1 El Khalil Yassin Gi. Point Professione Sport 1992 Amat-m 00:22:08  3,21
2 Hajjy Mohamed Atletica Castenato Bo 1979 Sm-35 00:22:09  3,21
3 Boncio Matteo Libertas Orvieto Tr 1995 Amat-m 00:23:44  3,36
4 Bambozzi Boris Rifondazione Podistica 1977 Sm-35 00:24:04  3,39
5 Chiappini Daniele Podistica Carsulae Tr 1978 Sm-35 00:24:11  3,40
6 Merluzzo Matteo G.s. Filippide C. del Lago 1987 Amat-m 00:24:17  3,41
7 Serva Elio Esercito Ce.Sel.Na Foligno 1982 Amat-m 00:24:29  3,43
8 Coletti Alessio Podistica Avis Deruta 1976 Sm-35 00:24:38  3,44
9 Vincenzoni Simone Runners Sangemini Tr 1973 Sm-40 00:24:41  3,44
10 Giovannini Lorenzo CDP-T&RB Group-Area Sistema 1975 Sm-40 00:24:54  3,46
11 Cuiti Stefano CDP-T&RB Group-Area Sistema 1973 Sm-40 00:25:07  3,48
12 Bazzucchi Mauro A.s.p.a. Bastia U. Pg 1965 Sm-50 00:25:16  3,50
13 Cavallucci Marco Runners Sangemini Tr 1967 Sm-45 00:25:18  3,50
14 Camilloni Livio Dream Runners Pg 1977 Sm-35 00:25:30  3,52
15 Ficorella Filippo S.s. Lazio Atletica 1991 Amat-m 00:25:35  3,53
16 Giacomelli Matteo Runners Sangemini Tr 1986 Amat-m 00:25:39  3,53
17 Mercantini Franco Podistica Carsulae Tr 1965 Sm-50 00:25:40  3,53
18 Orioli Fausto Acar Unicredit Pg 1961 Sm-50 00:25:44  3,54
19 Sfondalmondo Massimiliano Atletica Avis Perugia 1971 Sm-40 00:25:55  3,56
20 Scozzarella Giuseppe Rifondazione Podistica 1970 Sm-45 00:25:58  3,56
21 Zanino Giovanni Alessio A.s.p.a. Bastia U. Pg 1966 Sm-45 00:26:00  3,56
22 Maniaci Vincenzo Rifondazione Podistica 1963 Sm-50 00:26:01  3,57
23 Orsini Marco Runner Monte Acuto 1973 Sm-40 00:26:03  3,57
24 Migliacci Stefano U.p. Policiano Arezzo 1965 Sm-50 00:26:06  3,57
25 Ministro Francesco Amatori Podistica Terni 1972 Sm-40 00:26:07  3,57
26 Bragetti Giampiero Atletica Il Colle Pg 1970 Sm-45 00:26:15  3,59
27 Polticchia Roberto CDP-T&RB Group-Area Sistema 1964 Sm-50 00:26:21  4,00
28 Tummolo Luciano Atletica Colleferro 1956 Sm-55 00:26:28  4,01
29 Tarabella Stefano Marathon C. di Castello 1977 Sm-35 00:26:31  4,01
30 Urbani Luca Libertas Orvieto Tr 1982 Amat-m 00:26:32  4,01
31 Granieri Fiorini Fabrizio Uisport Avis Todi Pg 1969 Sm-45 00:26:39  4,02
32 Montini Adriano Podistica Carsulae Tr 1953 Sm-60 00:26:42  4,03
33 Apostolico Moreno Assisi Runners 1972 Sm-40 00:26:44  4,03
34 Mattioli Claudio Atletica Avis Perugia 1959 Sm-55 00:26:45  4,03
35 Procacci Nadio Marathon C. di Castello 1970 Sm-45 00:26:48  4,04
36 Nulli Alessandro Rifondazione Podistica 1966 Sm-45 00:26:52  4,04
37 Benedetti Stefano Atletica Il Colle Pg 1969 Sm-45 00:26:54  4,05
38 Ganganelli Valerio Gi. Point Professione Sport 1978 Sm-35 00:26:55  4,05
39 Muti Massimiliano Atletica Trevi Pg 1968 Sm-45 00:26:56  4,05
40 Pelliccia Alberto Libertas Orvieto Tr 1962 Sm-50 00:26:58  4,05
41 Castellani Simone Atletica Winner Foligno 1972 Sm-40 00:27:01  4,06
42 Moretti Samuele Atletica Il Colle Pg 1971 Sm-40 00:27:02  4,06
43 Trombettoni Luca Uisport Avis Todi Pg 1965 Sm-50 00:27:06  4,06
44 Novaro Marco Rifondazione Podistica 1963 Sm-50 00:27:08  4,07
45 Barcaroli Alessandro Libertas Orvieto Tr 1965 Sm-50 00:27:10  4,07
46 Giannoni Claudio CDP-T&RB Group-Area Sistema 1961 Sm-50 00:27:16  4,08
47 Poce Augusto Atletica Colleferro 1965 Sm-50 00:27:17  4,08
48 Francioli Luca Runners Sangemini Tr 1969 Sm-45 00:27:18  4,08
49 Barbarese Luca Podistica Carsulae Tr 1992 Amat-m 00:27:19  4,08
50 Piantoni Michele Podistica Carsulae Tr 1985 Amat-m 00:27:20  4,08
51 Gabrioni Luigi Atletica Il Colle Pg 1976 Sm-35 00:27:23  4,09
52 Zoccolini Michele Atletica Capanne Pg 1974 Sm-40 00:27:28  4,10
53 Porzi Fabio Atletica il Colle Pg 1960 Sm-55 00:27:30  4,10
54 Liti Sergio Runners Sangemini Tr 1961 Sm-50 00:27:34  4,11
55 Bertolini Ademaro CDP-T&RB Group-Area Sistema 1956 Sm-55 00:27:36  4,11
56 Calamita Paolo Pod. Avis Narni Tr 1972 Sm-40 00:27:37  4,11
57 Alemanno Filippo Uisport Avis Todi Pg 1993 Amat-m 00:27:39  4,11
58 Rossini Gianfranco CDP-T&RB Group-Area Sistema 1962 Sm-50 00:27:40  4,12
59 Demma Francesco Podistica Carsulae Tr 1984 Amat-m 00:27:41  4,12
60 Pacetti Silvio Atletica il Colle Pg 1969 Sm-45 00:27:42  4,12
61 Raspa Alessandro Assisi Runners 1981 Amat-m 00:27:43  4,12
62 Benedetti Ferdinando Atletica Avis Perugia 1962 Sm-50 00:27:45  4,12
63 Lamincia Gianluca Podistica Avis Deruta 1974 Sm-40 00:27:46  4,12
64 Biscotti Roberto Uisport Avis Todi Pg 1987 Amat-m 00:27:48  4,13
65 Bosco Augusto Amatori Podistica Terni 1982 Amat-m 00:27:49  4,13
66 Bartollini Sandro Runners Sangemini Tr 1957 Sm-55 00:28:00  4,15
67 Mancuso Walter Atletica Winner Foligno 1976 Sm-35 00:28:01  4,15
68 Di Gioia Fabio Athletic Terni 1980 Sm-35 00:28:03  4,15
69 Urbani Giovanni Libertas Orvieto Tr 1979 Sm-35 00:28:04  4,15
70 Salustri Moreno C.s.i Foligno 1964 Sm-50 00:28:05  4,15
71 Cassetta Fabio Assisi Runners 1972 Sm-40 00:28:06  4,15
72 Angeluzzi Massimo Runners Sangemini Tr 1963 Sm-50 00:28:07  4,16
73 Barola Marco Atletica il Colle Pg 1969 Sm-45 00:28:10  4,16
74 Coricello Antonio Podistica Corciano Pg 1973 Sm-40 00:28:13  4,17
75 Fiorini Andrea Athletic Lab Amelia 1987 Amat-m 00:28:14  4,17
76 Battistelli Luca Olympic Runners Lama 1985 Amat-m 00:28:15  4,17
77 Gradassi Mauro Atletica Il Colle Pg 1959 Sm-55 00:28:18  4,17
78 Mazzoni Michele Atletica Winner Foligno 1975 Sm-40 00:28:21  4,18
79 Caporaletti Simone Uisport Avis Todi Pg 1976 Sm-35 00:28:25  4,18
80 Fratini Daniele Atletica Taino G.Tadino 1979 Sm-35 00:28:29  4,19
81 Bordi Fabio Runners Sangemini Tr 1967 Sm-45 00:28:30  4,19
82 Grassi Tommaso Pod. Myricae Terni 1979 Sm-35 00:28:32  4,19
83 Baroni Tiziano Atletica Csain Perugia 1958 Sm-55 00:28:33  4,20
84 Leonetti Fabio Pod. Avis Narni Tr 1968 Sm-45 00:28:34  4,20
85 Caporaletti Francesco Atletica Il Colle Pg 1985 Amat-m 00:28:38  4,20
86 Pigini Alvaro Uisport Avis Todi Pg 1959 Sm-55 00:28:43  4,21
87 Batori Giampaolo Atletica Winner Foligno 1971 Sm-40 00:28:47  4,22
88 Allegrucci Fabio Gubbio Runners Pg 1974 Sm-40 00:28:51  4,22
89 Rondini Fabrizio Atletica Umbertide 1964 Sm-50 00:28:53  4,23
90 Destefanis Alessandro Runners Sangemini Tr 1965 Sm-50 00:28:55  4,23
91 Melis Massimiliano Podistica Avis Deruta 1974 Sm-40 00:28:58  4,23
92 Burla Devis Libertas Orvieto Tr 1979 Sm-35 00:28:59  4,23
93 Lagrasta Cataldo Uisport Avis Todi Pg 1991 Amat-m 00:29:00  4,24
94 Capizzi Davide Rifondazione Podistica 1967 Sm-45 00:29:10  4,25
95 Ambrogi Enrico Uisport Avis Todi Pg 1965 Sm-50 00:29:11  4,25
96 Fondacci Marco Gubbio Runners Pg 1984 Amat-m 00:29:12  4,25
97 Andrielli Germano Runners Sangemini Tr 1981 Amat-m 00:29:14  4,26
98 Bettini Roberto Uisport Avis Todi Pg 1978 Sm-35 00:29:17  4,26
99 Mangialasche Alfonso CDP-T&RB Group-Area Sistema 1951 Sm-60 00:29:22  4,27
100 Castellani Enrico Atletica il Colle Pg 1969 Sm-45 00:29:23  4,27
101 Bucari Fazio Podistica Carsulae Tr 1961 Sm-50 00:29:36  4,29
102 Fortunati Luca Polisportiva Clt Tr 1969 Sm-45 00:29:41  4,30
103 Porchetti Fabrizio Pod. Myricae Terni 1956 Sm-55 00:29:44  4,30
104 Tortoioli Andrea Atletica Capanne Pg 1967 Sm-45 00:29:45  4,30
105 Mariangeloni Alfio Atletica Avis Perugia 1969 Sm-45 00:29:46  4,31
106 Tartaglia Luigi Runners Sangemini Tr 1971 Sm-40 00:29:56  4,32
107 Matteucci Luigi Athletic Terni 1952 Sm-60 00:30:01  4,33
108 Hook Michael Uisport Avis Todi Pg 1969 Sm-45 00:30:04  4,33
109 Cucchiarini Pierluigi Olympic Runners Lama 1958 Sm-55 00:30:07  4,34
110 Guercini Bruno Atletica Il Colle Pg 1949 Sm-65 00:30:10  4,34
111 Piandoro Cristiano Uisport Avis Todi Pg 1973 Sm-40 00:30:12  4,35
112 Andrielli Valerio Runners Sangemini Tr 1977 Sm-35 00:30:13  4,35
113 Piantoni Leonardo Podistica Carsulae Tr 1981 Amat-m 00:30:15  4,35
114 Cerquaglia Mario Atletica il Colle Pg 1965 Sm-50 00:30:17  4,35
115 Sargenti Augusto Atletica Il Colle Pg 1955 Sm-60 00:30:18  4,35
116 Monghini Giorgio Pod. Myricae Terni 1967 Sm-45 00:30:19  4,36
117 Costarelli Leonardo Podistica Avis Deruta 1976 Sm-35 00:30:27  4,37
118 Brugnoni Luciano Gubbio Runners Pg 1974 Sm-40 00:30:29  4,37
119 Crisostomi Giovanni Pod. Myricae Terni 1966 Sm-45 00:30:31  4,37
120 Biondini Carlo Uisport Avis Todi Pg 1961 Sm-50 00:30:33  4,38
121 Falaschi Daniele CDP-T&RB Group-Area Sistema 1971 Sm-40 00:30:38  4,38
122 Martinelli Maurizio Uisport Avis Todi Pg 1981 Amat-m 00:30:43  4,39
123 Pagiotti Simone Podistica Avis Deruta 1978 Sm-35 00:30:53  4,41
124 Capponi Marco Atletica il Colle Pg 1968 Sm-45 00:30:56  4,41
125 Pascucci Moreno Uisport Avis Todi Pg 1966 Sm-45 00:31:02  4,42
126 Pedini Damiano Atletica Il Colle Pg 1968 Sm-45 00:31:04  4,42
127 Scardavilli Emiliano Podistica Carsulae Tr 1980 Sm-35 00:31:06  4,43
128 Aiello Marco Pod. Avis Narni Tr 1963 Sm-50 00:31:17  4,44
129 Sollevanti Marco Gubbio Runners Pg 1973 Sm-40 00:31:21  4,45
130 Siena Andrea A.s.p.a. Bastia U. Pg 1975 Sm-40 00:31:27  4,46
131 Pierotti Massimiliano Gubbio Runners Pg 1988 Amat-m 00:31:29  4,46
132 Tudino Mauro Rifondazione Podistica 1965 Sm-50 00:31:33  4,47
133 Ranchella Fabio CDP-T&RB Group-Area Sistema 1967 Sm-45 00:31:38  4,48
134 Salvatori Giovanni Rifondazione Podistica 1960 Sm-55 00:31:47  4,49
135 Bestiaccia Federico Atletica Winner Foligno 1976 Sm-35 00:31:48  4,49
136 Spadini Maurizio Pod. Avis Narni Tr 1961 Sm-50 00:31:51  4,50
137 Pierelli Vinicio Atletica Taino G.Tadino 1956 Sm-55 00:31:55  4,50
138 Cardaioli Danilo Atletica Il Colle Pg 1963 Sm-50 00:31:57  4,50
139 Ciaccio Pierluigi CDP-T&RB Group-Area Sistema 1964 Sm-50 00:31:59  4,51
140 Leonardi Roberto Marathon C. di Castello 1974 Sm-40 00:32:02  4,51
141 Rossi Gianluca A.s.p.a. Bastia U. Pg 1968 Sm-45 00:32:04  4,52
142 Menconi Antonello CDP-T&RB Group-Area Sistema 1967 Sm-45 00:32:07  4,52
143 Lambertucci Fausto Pod. Avis Narni Tr 1967 Sm-45 00:32:09  4,52
144 Cinque Massimiliano Pod. Avis Narni Tr 1969 Sm-45 00:32:10  4,52
145 Proietti Marco Forti Runners Terni 1979 Sm-35 00:32:13  4,53
146 Salvatori Dario Atletica il Colle Pg 1963 Sm-50 00:32:16  4,53
147 Comparozzi Edoardo Pod. Lino Spagnoli Pg 1965 Sm-50 00:32:17  4,53
148 Mastrini Maurizio Podistica Avis Deruta 1985 Amat-m 00:32:26  4,55
149 Canapari Francesco Atletica Avis Perugia 1958 Sm-55 00:32:44  4,58
150 Crocione Daniele Athletic Lab Amelia 1962 Sm-50 00:32:51  4,59
151 Bottoloni Raffaele Podistica Volumnia  Pg 1960 Sm-55 00:32:54  4,59
152 Guerieri Alessio Marathon C. di Castello 1972 Sm-40 00:33:02  5,00
153 Gentili Fausto Pod. Avis Narni Tr 1960 Sm-55 00:33:20  5,03
154 Scarabicchi Marco Marathon C. di Castello 1981 Amat-m 00:33:51  5,08
155 Rossi Paolo A.s.p.a. Bastia U. Pg 1965 Sm-50 00:33:53  5,08
156 Luna Emanuele Pod. Avis Narni Tr 1970 Sm-45 00:33:55  5,08
157 Celi Luca Pod. Avis Narni Tr 1965 Sm-50 00:33:58  5,09
158 Saccoccini Marco Atletica Il Colle Pg 1977 Sm-35 00:34:03  5,10
159 Cleri Angelo A.s.p.a. Bastia U. Pg 1952 Sm-60 00:34:18  5,12
160 Bracardi Paolo Podistica Volumnia  Pg 1964 Sm-50 00:34:28  5,13
161 Liberti Renzo CDP-T&RB Group-Area Sistema 1950 Sm-65 00:34:33  5,14
162 Gasbarro Massimo Podistica Avis Deruta 1971 Sm-40 00:34:37  5,15
163 Chiocci Alessio CDP-T&RB Group-Area Sistema 1981 Amat-m 00:34:56  5,18
164 Biscarini Claudio Uisport Avis Todi Pg 1954 Sm-60 00:34:59  5,18
165 Baldassarri Alesandro Atletica il Colle Pg 1980 Sm-35 00:35:25  5,22
166 Fumanti Leonardo Gubbio Runners Pg 1966 Sm-45 00:35:31  5,23
167 Chiacchieroni Adriano Uisport Avis Todi Pg 1971 Sm-40 00:35:39  5,24
168 Pellegrino Daniele Atletica il Colle Pg 1962 Sm-50 00:35:42  5,25
169 Tinarelli Alfredo Athletic Lab Amelia 1973 Sm-40 00:35:45  5,25
170 Pellegrini Gianni G.s. Filippide C. del Lago 1969 Sm-45 00:35:48  5,25
171 Gaggiotti Luigi Gubbio Runners Pg 1975 Sm-40 00:35:51  5,26
172 Manni Stefano Pod. Myricae Terni 1967 Sm-45 00:35:54  5,26
173 Cavalletti Roberto Pod. Myricae Terni 1971 Sm-40 00:36:01  5,27
174 Felici Aldo Pod. Avis Narni Tr 1947 Sm-65 00:36:04  5,28
175 Urbanella Federico A.s.p.a. Bastia U. Pg 1998 Amat-m 00:36:10  5,29
176 Morelli Claudio Uisport Avis Todi Pg 1968 Sm-45 00:36:12  5,29
177 Carletti Fabrizio Gubbio Runners Pg 1974 Sm-40 00:36:13  5,29
178 Rosati Giovanni Uisport Avis Todi Pg 1969 Sm-45 00:36:23  5,31
179 Petrucci Giuliano Pod. Avis Narni Tr 1961 Sm-50 00:36:24  5,31
180 Chiocci Marcello CDP-T&RB Group-Area Sistema 1949 Sm-65 00:36:26  5,31
181 Cirimbilli Alberto CDP-T&RB Group-Area Sistema 1940 Sm-70 00:36:28  5,32
182 Veschi Carlo Pod. Avis Narni Tr 1947 Sm-65 00:36:29  5,32
183 Petrucci Maurizio Runners Sangemini Tr 1974 Sm-40 00:36:56  5,36
184 Grillo Giacomo Amatori Podistica Terni 1958 Sm-55 00:37:10  5,38
185 Fischi Mauro Assisi Runners 1964 Sm-50 00:37:20  5,39
186 Trovati Roberto Uisport Avis Todi Pg 1967 Sm-45 00:39:30  5,59
187 Moscatello Stefano Podistica Volumnia  Pg 1967 Sm-45 00:39:31  5,59
188 Mantovani Nazzareno A.s.p.a. Bastia U. Pg 1954 Sm-60 00:39:32  5,59
189 Spadoni Alessandro Forti Runners Terni 1983 Amat-m 00:39:38  6,00
190 Serlupini Antonio A.s.p.a. Bastia U. Pg 1939 Sm-70 00:40:33  6,09
191 Rampiconi Adriano Runners Sangemini Tr 1947 Sm-65 00:42:42  6,28
192 Isola Antonio Podistica Carsulae Tr 1941 Sm-70 00:45:46  6,56
193 De Angelis Leonardo Podistica Carsulae Tr 1962 Sm-50 09:00:00  
Ordine d'arrivo generale femminile - km 6,600
Pos. Cognome Nome SocietÓ Anno Categoria Tempi Media
1 Poesini Federica Marathon C. di Castello 1976 Under/40 00:27:21  4,09
2 Cardarelli Fabiola Runners Sangemini Tr 1973 Sf-40 00:27:51  4,13
3 Zerini Elisabetta Runners Sangemini Tr 1980 Under/40 00:28:20  4,18
4 Alcherigi Katia Atletica Futura Figline 1974 Sf-40 00:29:06  4,25
5 Camellini Federica Podistica Avis Deruta 1974 Sf-40 00:29:33  4,29
6 Lanari Silvia Podistica Avis Deruta 1974 Sf-40 00:29:39  4,30
7 Enriquez Irene Atletica Il Colle Pg 1977 Under/40 00:29:48  4,31
8 Piastra Lorena CDP-T&RB Group-Area Sistema 1977 Under/40 00:30:09  4,34
9 Draoli M. Cristina Assisi Runners 1964 Over/50 00:30:11  4,34
10 Vichi Katiuscia Podistica Avis Deruta 1974 Sf-40 00:30:28  4,37
11 Chiavini Cristina Marathon C. di Castello 1984 Under/40 00:30:36  4,38
12 Rinaldi Laura Podistica Corciano Pg 1981 Under/40 00:31:01  4,42
13 Mori Montero Patricia Atletica Il Colle Pg 1974 Sf-40 00:31:12  4,44
14 Carloni Stefania Assisi Runners 1970 Sf-40 00:31:35  4,47
15 Giontella Francesca Pod. Myricae Terni 1979 Under/40 00:31:41  4,48
16 Ottobretti Elisa Atletica Trevi Pg 1984 Under/40 00:31:42  4,48
17 Pelli Alessandra Podistica Avis Deruta 1970 Sf-40 00:32:00  4,51
18 Morbidelli Giulia Marathon C. di Castello 1992 Under/40 00:32:01  4,51
19 Murasecco Pierpaola Atletica Avis Perugia 1966 Sf-40 00:32:06  4,52
20 Alunni Francesca Marathon C. di Castello 1974 Sf-40 00:32:19  4,54
21 Bobbi Silvia Pod. Avis Narni Tr 1971 Sf-40 00:32:52  4,59
22 Goretti Valentina Podistica Avis Deruta 1977 Under/40 00:32:53  4,59
23 Passamonti Alida CDP-T&RB Group-Area Sistema 1974 Sf-40 00:32:59  5,00
24 Gerbi Erika Atletica il Colle Pg 1974 Sf-40 00:33:09  5,01
25 Del Bianco Silvia Atletica Avis Perugia 1965 Over/50 00:33:23  5,03
26 Cavallari Chiara Amatori Podistica Terni 1984 Under/40 00:33:35  5,05
27 Chiappalupi Monica Pod. Avis Narni Tr 1967 Sf-40 00:33:42  5,06
28 Castellani Silvia Atletica il Colle Pg 1976 Under/40 00:34:02  5,09
29 Cruciani Annarita CDP-T&RB Group-Area Sistema 1968 Sf-40 00:34:31  5,14
30 Vella Debora CDP-T&RB Group-Area Sistema 1969 Sf-40 00:35:07  5,19
31 Zuniga Eliana Marcela Podistica Avis Deruta 1977 Under/40 00:36:06  5,28
32 Biscarini Lorella Runners Sangemini Tr 1961 Over/50 00:36:45  5,34
33 Falchetti Anna Maria CDP-T&RB Group-Area Sistema 1966 Sf-40 00:37:08  5,38
34 Ciavaglia Stefania Assisi Runners 1974 Sf-40 00:37:19  5,39
35 Sabatini Daniela Podistica Carsulae Tr 1960 Over/50 00:37:27  5,40
36 Pasquini AnnaMaria Pod. Avis Narni Tr 1955 Over/50 00:37:39  5,42
37 Paterni Michela Atletica Trevi Pg 1969 Sf-40 00:37:44  5,43
38 Trovato Barbara Podistica Carsulae Tr 1978 Under/40 00:37:55  5,45
39 Maculan Carla Podistica Avis Deruta 1964 Over/50 00:38:20  5,48
40 Caporaletti Sara Uisport Avis Todi Pg 1983 Under/40 00:38:33  5,50
41 Ceccarelli Benedetta Atleta Libera 1980 Under/40 00:38:35  5,51
42 Serafino Teresa Amatori Podistica Terni 1956 Over/50 00:39:23  5,58
43 Baldini Ilenia G.s. Filippide C. del Lago 1986 Under/40 00:39:41  6,01
44 Moretti Adonella A.s.p.a. Bastia U. Pg 1959 Over/50 00:39:42  6,01
45 Vagnarelli Rema A.s.p.a. Bastia U. Pg 1964 Over/50 00:39:43  6,01
46 Anastasi Ljdie Atletica Taino G.Tadino 1957 Over/50 00:41:00  6,13
47 Minelli Claudia Gubbio Runners Pg 1971 Sf-40 00:41:42  6,19
48 Cenci Daniela Atletica il Colle Pg 1982 Under/40 00:41:47  6,20
49 Mecarone Alessandra G.s. Filippide C. del Lago 1965 Over/50 00:42:26  6,26
50 Tsaousi Maria Run Card 1983 Under/40 00:42:35  6,27
51 Gabrioni Federica Atletica il Colle Pg 1971 Sf-40 00:42:38  6,28
52 Ronchi Annalisa Gubbio Runners Pg 1982 Under/40 00:44:23  6,43
53 Frillici Lauretta Atletica Taino G.Tadino 1965 Over/50 00:44:48  6,47

 

 

---------------

---------------

------------------------------

------------------------------